Time;durP1;ratioP1;P1;durP2;ratioP2;P2;SDS_P1;SDS_P2;PMS_P1;PMS_P2;Temp;Humidity;BMP_temperature;BMP_pressure;BME280_temperature;BME280_humidity;BME280_pressure;Samples;Min_cycle;Max_cycle;Signal;HPM_P1;HPM_P2
2023/01/03 00:01:45;;;;;;;3.27;1.10;;;10.20;99.90;;;;;;4984221;28;20174;-75
2023/01/03 00:04:11;;;;;;;1.20;0.87;;;10.10;99.90;;;;;;4972964;28;20369;-74
2023/01/03 00:06:40;;;;;;;2.00;1.03;;;10.10;99.90;;;;;;4978612;28;20246;-74
2023/01/03 00:09:09;;;;;;;1.77;1.00;;;10.00;99.90;;;;;;4978433;28;20183;-75
2023/01/03 00:14:25;;;;;;;1.03;0.83;;;9.90;99.90;;;;;;4989092;28;20226;-76
2023/01/03 00:16:54;;;;;;;1.10;0.80;;;10.00;99.90;;;;;;4988407;28;20195;-76
2023/01/03 00:19:21;;;;;;;1.97;0.97;;;9.90;99.90;;;;;;4972734;28;20214;-75
2023/01/03 00:21:47;;;;;;;2.53;1.07;;;9.90;99.90;;;;;;4979400;28;20230;-75
2023/01/03 00:24:13;;;;;;;1.20;0.90;;;9.80;99.90;;;;;;4985877;28;20171;-76
2023/01/03 00:26:39;;;;;;;1.13;0.80;;;9.90;99.90;;;;;;4969465;28;20262;-75
2023/01/03 00:29:10;;;;;;;1.27;0.80;;;9.90;99.90;;;;;;4975662;28;20229;-75
2023/01/03 00:31:39;;;;;;;1.67;0.80;;;10.20;99.90;;;;;;4969667;28;20191;-75
2023/01/03 00:34:05;;;;;;;1.27;1.07;;;9.90;99.90;;;;;;4973595;28;20176;-75
2023/01/03 00:36:31;;;;;;;1.00;0.90;;;9.90;99.90;;;;;;4976920;28;20298;-75
2023/01/03 00:38:57;;;;;;;2.97;1.40;;;9.90;99.90;;;;;;4971484;28;20322;-75
2023/01/03 00:41:25;;;;;;;1.20;0.93;;;9.90;99.90;;;;;;4969950;28;20183;-75
2023/01/03 00:43:53;;;;;;;1.37;0.93;;;9.90;99.90;;;;;;4978831;28;20183;-75
2023/01/03 00:46:22;;;;;;;1.30;1.10;;;9.90;99.90;;;;;;4978616;28;20183;-75
2023/01/03 00:48:48;;;;;;;1.30;1.00;;;9.90;99.90;;;;;;4978961;28;20207;-75
2023/01/03 00:51:16;;;;;;;1.97;1.00;;;10.10;99.90;;;;;;4979235;28;20215;-75
2023/01/03 00:53:44;;;;;;;1.40;0.87;;;9.80;99.90;;;;;;4978279;28;20207;-75
2023/01/03 00:56:15;;;;;;;1.40;1.00;;;10.00;99.90;;;;;;4977296;28;20211;-75
2023/01/03 00:58:42;;;;;;;1.53;1.03;;;10.00;99.90;;;;;;4977850;28;20295;-74
2023/01/03 01:01:16;;;;;;;1.77;1.07;;;10.00;99.90;;;;;;4976080;28;20180;-75
2023/01/03 01:03:47;;;;;;;1.27;0.90;;;9.90;99.90;;;;;;4984265;28;20210;-75
2023/01/03 01:06:24;;;;;;;1.20;1.00;;;10.00;99.90;;;;;;4983228;28;20266;-75
2023/01/03 01:08:52;;;;;;;1.07;0.80;;;9.90;99.90;;;;;;4976723;28;20191;-75
2023/01/03 01:11:19;;;;;;;1.33;0.97;;;9.90;99.90;;;;;;4964077;28;20255;-76
2023/01/03 01:13:45;;;;;;;1.73;0.90;;;9.90;99.90;;;;;;4972824;28;20272;-75
2023/01/03 01:16:14;;;;;;;0.87;0.80;;;9.90;99.90;;;;;;4970328;28;20183;-75
2023/01/03 01:21:27;;;;;;;1.10;0.80;;;9.90;99.90;;;;;;5509214;23;20535;-75
2023/01/03 01:23:53;;;;;;;1.23;0.80;;;9.90;99.90;;;;;;4943422;29;20295;-75
2023/01/03 01:26:24;;;;;;;2.50;0.90;;;9.90;99.90;;;;;;4949519;29;20287;-74
2023/01/03 01:28:51;;;;;;;1.00;0.90;;;9.90;99.90;;;;;;4941022;28;20176;-74
2023/01/03 01:31:18;;;;;;;2.80;1.00;;;9.90;99.90;;;;;;4959380;28;20212;-76
2023/01/03 01:33:47;;;;;;;1.63;1.00;;;9.90;99.90;;;;;;4958557;28;20184;-74
2023/01/03 01:36:21;;;;;;;1.60;1.10;;;9.80;99.90;;;;;;4951959;29;20181;-74
2023/01/03 01:38:52;;;;;;;2.40;1.10;;;9.90;99.90;;;;;;4950307;28;20199;-75
2023/01/03 01:44:37;;;;;;;2.03;0.90;;;9.90;99.90;;;;;;4959746;28;20323;-74
2023/01/03 01:47:04;;;;;;;2.20;0.90;;;9.90;99.90;;;;;;4943191;28;20340;-74
2023/01/03 01:49:32;;;;;;;1.60;0.90;;;9.90;99.90;;;;;;4958221;28;20180;-74
2023/01/03 01:59:41;;;;;;;2.17;0.90;;;9.90;99.90;;;;;;5007691;28;20226;-76
2023/01/03 02:02:08;;;;;;;1.33;0.90;;;9.90;99.90;;;;;;5000234;28;20215;-74
2023/01/03 02:04:37;;;;;;;1.00;0.70;;;9.90;99.90;;;;;;4991920;28;20281;-76
2023/01/03 02:07:04;;;;;;;1.17;0.90;;;9.90;99.90;;;;;;4989791;28;20258;-73
2023/01/03 02:09:34;;;;;;;1.63;0.90;;;9.90;99.90;;;;;;4991001;28;20202;-76
2023/01/03 02:15:44;;;;;;;0.80;0.80;;;9.90;99.90;;;;;;4990370;28;20186;-76
2023/01/03 02:18:31;;;;;;;0.60;0.60;;;9.90;99.90;;;;;;4977246;28;20235;-76
2023/01/03 02:21:24;;;;;;;0.97;0.60;;;9.90;99.90;;;;;;4987021;28;20186;-75
2023/01/03 02:24:07;;;;;;;0.90;0.70;;;9.90;99.90;;;;;;4992187;28;20199;-75
2023/01/03 02:26:51;;;;;;;0.90;0.80;;;9.90;99.90;;;;;;4981476;28;20205;-76
2023/01/03 02:29:38;;;;;;;1.60;0.90;;;9.90;99.90;;;;;;4990749;28;20214;-75
2023/01/03 02:32:18;;;;;;;1.53;0.80;;;9.90;99.90;;;;;;4970234;28;20286;-76
2023/01/03 02:35:15;;;;;;;1.57;0.90;;;10.00;99.90;;;;;;4970756;28;20510;-75
2023/01/03 02:38:10;;;;;;;1.13;0.90;;;9.90;99.90;;;;;;4973809;28;20297;-75
2023/01/03 02:40:44;;;;;;;0.90;0.70;;;10.00;99.90;;;;;;4975831;28;20182;-77
2023/01/03 02:43:35;;;;;;;2.07;1.00;;;10.00;99.90;;;;;;4971243;28;20183;-76
2023/01/03 02:46:08;;;;;;;0.90;0.80;;;10.00;99.90;;;;;;4974304;28;20210;-76
2023/01/03 02:48:45;;;;;;;1.00;0.90;;;10.10;99.90;;;;;;4977545;28;20275;-76
2023/01/03 02:51:32;;;;;;;1.50;0.80;;;10.10;99.90;;;;;;4987833;28;20294;-77
2023/01/03 02:54:01;;;;;;;1.73;0.70;;;10.10;99.90;;;;;;4972051;28;20199;-77
2023/01/03 02:56:36;;;;;;;1.20;0.80;;;10.10;99.90;;;;;;4970895;28;20191;-76
2023/01/03 02:59:08;;;;;;;0.97;0.73;;;10.10;99.90;;;;;;4976426;28;20202;-76
2023/01/03 03:01:36;;;;;;;1.33;0.80;;;10.10;99.90;;;;;;4988635;28;20195;-76
2023/01/03 03:04:05;;;;;;;2.08;0.95;;;10.10;99.90;;;;;;4971687;28;20191;-76
2023/01/03 03:06:44;;;;;;;1.27;1.00;;;10.10;99.90;;;;;;4985093;28;20183;-77
2023/01/03 03:09:12;;;;;;;1.00;0.70;;;10.20;99.90;;;;;;4992411;28;20179;-76
2023/01/03 03:14:51;;;;;;;2.30;1.00;;;10.10;99.90;;;;;;4990530;28;20334;-77
2023/01/03 03:17:23;;;;;;;1.70;0.77;;;10.10;99.90;;;;;;4993082;28;20203;-76
2023/01/03 03:25:32;;;;;;;1.03;0.83;;;10.10;99.90;;;;;;4997847;28;20202;-76
2023/01/03 03:30:57;;;;;;;1.30;0.80;;;10.10;99.90;;;;;;4994343;28;20288;-76
2023/01/03 03:33:25;;;;;;;1.73;0.93;;;10.00;99.90;;;;;;4968835;28;20183;-76
2023/01/03 03:35:56;;;;;;;1.47;0.97;;;10.00;99.90;;;;;;4974047;28;20218;-76
2023/01/03 03:38:35;;;;;;;1.47;0.73;;;10.00;99.90;;;;;;4979332;28;20286;-76
2023/01/03 03:47:47;;;;;;;1.10;0.80;;;10.00;99.90;;;;;;4996922;28;20262;-76
2023/01/03 03:50:54;;;;;;;1.20;1.07;;;10.00;99.90;;;;;;4968848;28;20210;-77
2023/01/03 03:53:24;;;;;;;1.17;0.93;;;10.00;99.90;;;;;;4937794;28;20270;-76
2023/01/03 03:56:14;;;;;;;1.67;0.93;;;9.90;99.90;;;;;;4975854;28;20195;-76
2023/01/03 03:58:45;;;;;;;0.87;0.80;;;10.00;99.90;;;;;;4976684;28;20210;-75
2023/01/03 04:01:15;;;;;;;0.87;0.70;;;10.00;99.90;;;;;;4978144;28;20175;-77
2023/01/03 04:03:42;;;;;;;1.67;1.00;;;10.00;99.90;;;;;;4972115;28;20191;-75
2023/01/03 04:06:32;;;;;;;1.47;0.70;;;10.00;99.90;;;;;;4971014;28;20176;-76
2023/01/03 04:09:01;;;;;;;1.40;0.83;;;10.00;99.90;;;;;;4973421;28;20183;-76
2023/01/03 04:11:28;;;;;;;1.90;1.10;;;10.00;99.90;;;;;;4978303;28;20183;-77
2023/01/03 04:13:54;;;;;;;1.77;0.80;;;10.00;99.90;;;;;;4988963;28;20183;-76
2023/01/03 04:16:20;;;;;;;1.50;1.07;;;10.10;99.90;;;;;;4980703;28;20214;-76
2023/01/03 04:18:45;;;;;;;2.33;1.00;;;10.10;99.90;;;;;;4980180;28;20223;-76
2023/01/03 04:21:11;;;;;;;1.70;1.00;;;10.00;99.90;;;;;;4975470;28;20270;-74
2023/01/03 04:23:37;;;;;;;2.53;0.93;;;10.10;99.90;;;;;;4974731;28;20192;-74
2023/01/03 04:26:04;;;;;;;1.40;1.10;;;10.00;99.90;;;;;;4981489;28;20241;-75
2023/01/03 04:28:31;;;;;;;1.93;1.40;;;10.10;99.90;;;;;;4968210;28;20219;-76
2023/01/03 04:30:57;;;;;;;2.20;0.90;;;10.10;99.90;;;;;;4974384;28;20195;-75
2023/01/03 04:33:25;;;;;;;1.30;0.80;;;10.10;99.90;;;;;;4980651;28;20263;-75
2023/01/03 04:35:50;;;;;;;1.03;0.77;;;10.10;99.90;;;;;;4973000;28;20230;-75
2023/01/03 04:38:19;;;;;;;2.78;1.52;;;10.10;99.90;;;;;;4979825;28;20207;-76
2023/01/03 04:40:44;;;;;;;5.13;3.43;;;10.10;99.90;;;;;;4979842;28;20179;-76
2023/01/03 04:45:55;;;;;;;8.13;5.77;;;10.10;99.90;;;;;;4993099;28;20258;-76
2023/01/03 04:48:25;;;;;;;4.40;2.77;;;10.20;99.90;;;;;;4979686;28;20256;-75
2023/01/03 04:50:56;;;;;;;2.80;2.10;;;10.20;99.90;;;;;;4974409;28;20183;-76
2023/01/03 04:53:23;;;;;;;2.47;1.77;;;10.20;99.90;;;;;;4983700;28;20191;-69
2023/01/03 04:55:52;;;;;;;3.37;1.50;;;10.40;99.90;;;;;;5001172;28;20215;-71
2023/01/03 04:58:19;;;;;;;3.07;1.40;;;10.40;99.90;;;;;;4999075;28;20235;-69
2023/01/03 05:00:45;;;;;;;1.50;1.20;;;10.30;99.90;;;;;;5026646;23;20238;-74
2023/01/03 05:03:10;;;;;;;1.80;1.07;;;10.20;99.90;;;;;;4978597;28;20200;-77
2023/01/03 05:05:41;;;;;;;2.00;0.90;;;10.40;99.90;;;;;;4988949;28;20218;-77
2023/01/03 05:08:12;;;;;;;1.60;0.80;;;10.20;99.90;;;;;;4971566;28;20204;-76
2023/01/03 05:10:40;;;;;;;1.27;0.90;;;10.30;99.90;;;;;;4986249;28;20184;-75
2023/01/03 05:13:07;;;;;;;0.90;0.70;;;10.20;99.90;;;;;;4967169;28;20215;-74
2023/01/03 05:15:38;;;;;;;0.70;0.70;;;10.30;99.90;;;;;;4974096;28;20272;-76
2023/01/03 05:18:07;;;;;;;1.10;0.70;;;10.30;99.90;;;;;;4945348;28;20275;-77
2023/01/03 05:26:18;;;;;;;1.43;0.90;;;10.20;99.90;;;;;;4975691;28;20191;-75
2023/01/03 05:28:54;;;;;;;1.33;0.80;;;10.30;99.90;;;;;;4968241;28;20196;-77
2023/01/03 05:31:21;;;;;;;3.20;1.50;;;10.20;99.90;;;;;;4957548;28;21497;-76
2023/01/03 05:33:47;;;;;;;1.83;1.00;;;10.20;99.90;;;;;;4966715;28;20199;-75
2023/01/03 05:36:13;;;;;;;1.50;0.87;;;10.20;99.90;;;;;;4975638;28;20176;-76
2023/01/03 05:38:38;;;;;;;3.27;1.13;;;10.20;99.90;;;;;;4977878;28;20195;-75
2023/01/03 05:41:07;;;;;;;1.47;0.93;;;10.20;99.90;;;;;;4975239;28;20210;-76
2023/01/03 05:43:35;;;;;;;2.13;1.13;;;10.20;99.90;;;;;;4967206;28;20182;-77
2023/01/03 05:46:00;;;;;;;1.60;1.00;;;10.20;99.90;;;;;;4967072;28;20243;-77
2023/01/03 05:48:26;;;;;;;1.47;1.00;;;10.20;99.90;;;;;;4962428;28;20200;-76
2023/01/03 05:50:54;;;;;;;2.73;1.20;;;10.10;99.90;;;;;;4990105;28;20195;-73
2023/01/03 05:53:20;;;;;;;1.83;1.10;;;10.10;99.90;;;;;;4967053;28;20254;-76
2023/01/03 05:55:50;;;;;;;2.03;1.37;;;10.10;99.90;;;;;;4979554;28;20187;-76
2023/01/03 05:58:16;;;;;;;1.40;1.20;;;10.00;99.90;;;;;;4939832;29;20200;-76
2023/01/03 06:00:42;;;;;;;2.57;1.20;;;10.00;99.90;;;;;;4955545;28;20224;-76
2023/01/03 06:03:07;;;;;;;1.23;1.00;;;10.00;99.90;;;;;;4966231;28;20176;-76
2023/01/03 06:05:33;;;;;;;2.00;1.23;;;9.90;99.90;;;;;;4974142;28;20238;-75
2023/01/03 06:08:01;;;;;;;2.03;1.40;;;9.90;99.90;;;;;;4973558;28;20472;-76
2023/01/03 06:10:26;;;;;;;1.43;1.03;;;9.90;99.90;;;;;;4954159;28;20325;-76
2023/01/03 06:12:54;;;;;;;2.43;1.20;;;9.80;99.90;;;;;;4955713;28;20235;-76
2023/01/03 06:15:22;;;;;;;1.50;1.10;;;9.70;99.90;;;;;;4962566;28;20203;-76
2023/01/03 06:17:53;;;;;;;1.43;1.30;;;9.70;99.90;;;;;;4987233;28;20240;-77
2023/01/03 06:20:19;;;;;;;2.50;1.20;;;9.70;99.90;;;;;;4962336;28;20196;-76
2023/01/03 06:22:47;;;;;;;4.60;1.13;;;9.60;99.90;;;;;;4983489;28;20187;-77
2023/01/03 06:25:17;;;;;;;2.33;1.30;;;9.60;99.90;;;;;;4983194;28;20274;-77
2023/01/03 06:27:45;;;;;;;4.77;1.30;;;9.50;99.90;;;;;;5008249;28;20203;-78
2023/01/03 06:30:11;;;;;;;2.13;1.20;;;9.50;99.90;;;;;;4972196;28;20232;-76
2023/01/03 06:32:37;;;;;;;2.00;1.37;;;9.40;99.90;;;;;;4978788;28;20227;-76
2023/01/03 06:35:05;;;;;;;2.13;0.93;;;9.40;99.90;;;;;;4956991;28;20199;-75
2023/01/03 06:37:31;;;;;;;2.40;1.20;;;9.30;99.90;;;;;;4993195;28;20188;-77
2023/01/03 06:39:56;;;;;;;1.97;1.27;;;9.30;99.90;;;;;;4972481;28;20218;-76
2023/01/03 06:53:32;;;;;;;2.57;1.70;;;9.10;99.90;;;;;;4957577;28;20306;-77
2023/01/03 06:56:00;;;;;;;2.00;1.30;;;9.10;99.90;;;;;;4975977;28;20179;-76
2023/01/03 06:58:26;;;;;;;1.97;1.20;;;9.10;99.90;;;;;;4968214;28;20196;-77
2023/01/03 07:00:53;;;;;;;1.50;1.40;;;9.10;99.90;;;;;;4954878;28;20278;-76
2023/01/03 07:03:19;;;;;;;1.80;1.50;;;9.10;99.90;;;;;;4971184;28;20187;-76
2023/01/03 07:05:50;;;;;;;2.90;1.50;;;9.10;99.90;;;;;;4964502;28;20197;-76
2023/01/03 07:08:18;;;;;;;1.80;1.30;;;9.10;99.90;;;;;;4974458;28;20400;-77
2023/01/03 07:10:46;;;;;;;2.50;1.53;;;9.10;99.90;;;;;;4970405;28;20188;-77
2023/01/03 07:16:01;;;;;;;2.60;1.80;;;9.10;99.90;;;;;;4974718;28;20208;-77
2023/01/03 07:18:27;;;;;;;2.47;1.50;;;9.10;99.90;;;;;;4961195;28;20235;-77
2023/01/03 07:20:54;;;;;;;2.10;1.80;;;9.00;99.90;;;;;;4973913;28;20180;-77
2023/01/03 07:23:20;;;;;;;2.03;1.40;;;9.00;99.90;;;;;;4976043;28;20176;-76
2023/01/03 07:25:46;;;;;;;3.00;1.27;;;9.00;99.90;;;;;;4969536;28;20207;-77
2023/01/03 07:28:16;;;;;;;2.40;1.60;;;9.00;99.90;;;;;;4958038;28;20224;-77
2023/01/03 07:30:44;;;;;;;2.80;1.60;;;9.00;99.90;;;;;;4977953;28;20222;-77
2023/01/03 07:33:14;;;;;;;2.17;1.60;;;9.00;99.90;;;;;;4966558;28;20184;-77
2023/01/03 07:35:41;;;;;;;3.30;1.60;;;9.00;99.90;;;;;;4977313;28;20191;-77
2023/01/03 07:38:08;;;;;;;1.93;1.50;;;8.90;99.90;;;;;;4994428;28;20253;-77
2023/01/03 07:40:36;;;;;;;2.30;1.60;;;9.00;99.90;;;;;;4979616;28;20172;-76
2023/01/03 07:45:47;;;;;;;1.70;1.40;;;8.90;99.90;;;;;;4971842;28;20215;-75
2023/01/03 07:48:19;;;;;;;2.07;1.43;;;9.00;99.90;;;;;;4985034;28;20179;-76
2023/01/03 07:50:47;;;;;;;1.80;1.47;;;9.00;99.90;;;;;;4977795;28;20176;-76
2023/01/03 07:53:15;;;;;;;1.97;1.43;;;8.90;99.90;;;;;;4988115;28;20284;-77
2023/01/03 07:55:43;;;;;;;2.47;1.60;;;8.90;99.90;;;;;;4975293;28;20223;-69
2023/01/03 07:58:11;;;;;;;1.60;1.50;;;9.00;99.90;;;;;;4997753;28;20202;-68
2023/01/03 08:00:39;;;;;;;2.17;1.60;;;8.90;99.90;;;;;;4992227;28;20204;-77
2023/01/03 08:03:08;;;;;;;1.90;1.50;;;9.00;99.90;;;;;;4966034;28;20185;-76
2023/01/03 08:05:36;;;;;;;2.43;1.90;;;9.00;99.90;;;;;;4977616;28;20179;-76
2023/01/03 08:08:04;;;;;;;2.93;1.57;;;9.00;99.90;;;;;;4974680;28;20195;-76
2023/01/03 08:13:16;;;;;;;2.33;1.60;;;9.00;99.90;;;;;;4958952;29;20208;-77
2023/01/03 08:15:49;;;;;;;2.10;1.60;;;9.00;99.90;;;;;;4963466;28;20172;-74
2023/01/03 08:18:18;;;;;;;3.00;1.60;;;9.10;99.90;;;;;;4992688;28;20315;-76
2023/01/03 08:20:44;;;;;;;3.60;1.90;;;9.10;99.90;;;;;;4971718;28;20196;-75
2023/01/03 08:23:10;;;;;;;3.43;1.93;;;9.10;99.90;;;;;;4970916;28;20192;-76
2023/01/03 08:25:36;;;;;;;2.03;1.83;;;9.20;99.90;;;;;;4970094;28;20191;-77
2023/01/03 08:28:02;;;;;;;1.77;1.60;;;9.20;99.90;;;;;;4955765;28;20190;-76
2023/01/03 08:30:40;;;;;;;2.33;1.80;;;9.30;99.90;;;;;;4980808;28;20212;-76
2023/01/03 08:33:08;;;;;;;2.33;1.60;;;9.40;99.90;;;;;;4973984;28;20168;-76
2023/01/03 08:35:37;;;;;;;2.53;1.73;;;9.40;99.90;;;;;;4959718;28;20184;-75
2023/01/03 08:38:05;;;;;;;2.93;1.80;;;9.50;99.90;;;;;;4976577;28;20235;-77
2023/01/03 08:40:35;;;;;;;2.13;1.60;;;9.50;99.90;;;;;;4957757;28;20263;-74
2023/01/03 08:43:04;;;;;;;5.37;2.00;;;9.60;99.90;;;;;;4966300;28;20172;-77
2023/01/03 08:45:30;;;;;;;2.43;1.80;;;9.70;99.90;;;;;;4970711;28;20207;-77
2023/01/03 08:48:00;;;;;;;2.00;1.77;;;9.60;99.90;;;;;;4973873;28;20177;-76
2023/01/03 08:50:26;;;;;;;2.00;1.80;;;9.70;99.90;;;;;;4970066;28;20440;-76
2023/01/03 08:52:52;;;;;;;3.03;1.70;;;9.80;99.90;;;;;;4985490;28;20180;-76
2023/01/03 08:55:18;;;;;;;2.03;1.70;;;9.80;99.90;;;;;;4987103;28;20180;-77
2023/01/03 08:57:44;;;;;;;2.73;1.70;;;9.90;99.90;;;;;;4973717;28;20230;-76
2023/01/03 09:00:10;;;;;;;1.97;1.47;;;10.00;99.90;;;;;;4972143;28;20311;-76
2023/01/03 09:02:36;;;;;;;2.43;1.60;;;10.00;99.90;;;;;;4988794;28;20177;-76
2023/01/03 09:05:02;;;;;;;2.13;1.50;;;10.00;99.90;;;;;;4982701;28;20342;-76
2023/01/03 09:07:27;;;;;;;2.27;1.87;;;10.00;99.90;;;;;;4983012;28;20191;-77
2023/01/03 09:09:53;;;;;;;2.10;1.57;;;10.00;99.90;;;;;;4962779;28;20275;-77
2023/01/03 09:12:21;;;;;;;1.60;1.50;;;10.10;99.90;;;;;;4961506;28;20207;-77
2023/01/03 09:14:46;;;;;;;3.43;1.80;;;10.20;99.90;;;;;;4967970;28;20255;-77
2023/01/03 09:17:12;;;;;;;2.50;1.60;;;10.40;99.90;;;;;;4988790;28;20199;-75
2023/01/03 09:19:37;;;;;;;1.73;1.45;;;10.60;99.90;;;;;;4955371;28;20239;-77
2023/01/03 09:22:03;;;;;;;2.83;1.60;;;10.80;99.90;;;;;;4968391;28;20199;-75
2023/01/03 09:24:29;;;;;;;1.52;1.30;;;11.00;99.90;;;;;;4961843;28;20210;-77
2023/01/03 09:26:57;;;;;;;1.88;1.50;;;11.20;99.90;;;;;;4973715;28;20184;-76
2023/01/03 09:29:25;;;;;;;2.17;1.50;;;11.40;99.90;;;;;;4958013;28;20191;-77
2023/01/03 09:31:50;;;;;;;2.80;1.55;;;11.60;99.90;;;;;;4957090;28;20263;-76
2023/01/03 09:34:18;;;;;;;2.17;1.50;;;11.70;99.90;;;;;;4975194;28;20184;-75
2023/01/03 09:36:44;;;;;;;1.90;1.50;;;11.80;99.90;;;;;;4974521;28;20191;-77
2023/01/03 09:39:13;;;;;;;2.45;1.60;;;11.90;99.90;;;;;;4969094;28;20199;-79
2023/01/03 09:41:39;;;;;;;3.10;1.70;;;12.00;99.90;;;;;;4972304;28;20192;-78
2023/01/03 09:44:07;;;;;;;2.85;1.50;;;12.20;99.90;;;;;;4967677;28;20291;-77
2023/01/03 09:46:36;;;;;;;2.60;1.52;;;12.20;99.90;;;;;;4965796;28;20199;-76
2023/01/03 09:49:04;;;;;;;3.88;1.50;;;12.30;99.90;;;;;;4990415;28;20188;-79
2023/01/03 10:04:04;;;;;;;3.17;1.58;;;12.60;99.90;;;;;;4986253;28;20234;-81
2023/01/03 10:06:28;;;;;;;3.05;1.75;;;12.70;99.90;;;;;;4974062;28;20179;-76
2023/01/03 10:09:16;;;;;;;6.38;2.50;;;12.70;99.90;;;;;;4976720;28;20195;-79
2023/01/03 10:11:59;;;;;;;2.63;1.65;;;12.70;99.90;;;;;;4970606;28;20223;-78
2023/01/03 10:14:41;;;;;;;2.10;1.67;;;12.70;99.90;;;;;;4968053;28;20179;-84
2023/01/03 10:17:30;;;;;;;2.15;1.40;;;12.80;99.90;;;;;;4978011;28;20270;-82
2023/01/03 10:20:21;;;;;;;2.35;1.60;;;12.80;99.90;;;;;;4978035;28;20222;-89
2023/01/03 10:22:48;;;;;;;3.13;1.60;;;12.90;99.90;;;;;;4959860;28;20176;-80
2023/01/03 10:25:20;;;;;;;3.67;1.88;;;12.90;99.90;;;;;;4981380;28;20370;-85
2023/01/03 10:27:55;;;;;;;1.73;1.10;;;12.90;99.90;;;;;;4994506;28;20261;-81
2023/01/03 10:30:33;;;;;;;4.28;1.50;;;13.00;99.90;;;;;;4974472;28;20314;-81
2023/01/03 10:33:24;;;;;;;3.80;1.50;;;13.10;99.90;;;;;;4964066;28;20199;-84
2023/01/03 10:35:53;;;;;;;2.88;1.33;;;13.10;99.90;;;;;;4975165;28;20187;-83
2023/01/03 10:38:21;;;;;;;3.60;1.80;;;13.10;99.90;;;;;;4977849;28;20266;-79
2023/01/03 10:40:56;;;;;;;4.00;1.75;;;13.10;99.90;;;;;;4974124;28;20179;-80
2023/01/03 10:43:32;;;;;;;4.88;1.60;;;13.10;99.90;;;;;;4974387;28;20234;-83
2023/01/03 10:46:00;;;;;;;2.13;1.00;;;13.10;99.90;;;;;;4980992;28;20178;-84
2023/01/03 10:48:39;;;;;;;2.17;1.40;;;13.10;99.90;;;;;;4966495;28;20176;-79
2023/01/03 10:51:37;;;;;;;3.42;2.08;;;13.20;99.90;;;;;;4969647;28;22252;-79
2023/01/03 10:54:28;;;;;;;2.58;1.60;;;13.20;99.90;;;;;;4955686;28;20279;-85
2023/01/03 10:56:54;;;;;;;2.03;1.08;;;13.30;99.90;;;;;;4967961;28;20212;-84
2023/01/03 10:59:22;;;;;;;1.98;1.00;;;13.30;99.90;;;;;;4970532;28;20188;-86
2023/01/03 11:02:11;;;;;;;1.67;1.10;;;13.40;99.90;;;;;;4972009;28;20273;-84
2023/01/03 11:04:37;;;;;;;1.92;1.00;;;13.50;99.90;;;;;;4965597;28;20191;-82
2023/01/03 11:07:15;;;;;;;2.55;1.52;;;13.60;99.90;;;;;;4981102;28;20266;-80
2023/01/03 11:09:50;;;;;;;5.22;2.28;;;13.70;99.90;;;;;;4963116;28;20336;-82
2023/01/03 11:12:37;;;;;;;2.47;1.23;;;13.80;99.90;;;;;;4971091;28;20174;-83
2023/01/03 11:15:32;;;;;;;1.70;1.05;;;13.70;99.90;;;;;;4988320;28;20185;-82
2023/01/03 11:18:00;;;;;;;1.45;1.00;;;13.70;99.90;;;;;;4988057;28;20180;-84
2023/01/03 11:20:40;;;;;;;1.33;0.80;;;13.70;99.90;;;;;;4970984;28;20207;-79
2023/01/03 11:23:37;;;;;;;1.20;0.77;;;13.70;99.90;;;;;;4981535;28;20278;-83
2023/01/03 11:26:31;;;;;;;1.85;1.10;;;13.70;99.90;;;;;;4967849;28;20206;-84
2023/01/03 11:29:25;;;;;;;1.20;1.00;;;13.70;99.90;;;;;;4966350;28;20218;-81
2023/01/03 11:32:18;;;;;;;2.58;1.17;;;13.80;99.90;;;;;;4977021;28;20206;-83
2023/01/03 11:34:51;;;;;;;2.22;0.98;;;13.90;99.90;;;;;;4989396;28;20186;-81
2023/01/03 11:37:40;;;;;;;3.10;1.48;;;13.90;99.90;;;;;;4976477;28;20321;-83
2023/01/03 11:40:31;;;;;;;1.63;0.80;;;13.90;99.90;;;;;;4975035;28;20225;-84
2023/01/03 11:43:11;;;;;;;3.42;1.10;;;13.80;99.90;;;;;;4974678;28;20196;-80
2023/01/03 11:46:05;;;;;;;2.08;0.80;;;13.80;99.90;;;;;;4994781;28;20238;-81
2023/01/03 11:48:56;;;;;;;2.33;0.80;;;13.60;99.90;;;;;;4982857;28;20268;-79
2023/01/03 11:51:30;;;;;;;2.17;0.73;;;13.50;99.90;;;;;;4969543;28;20188;-77
2023/01/03 11:54:02;;;;;;;2.22;0.90;;;13.30;99.90;;;;;;4974645;28;20259;-80
2023/01/03 11:56:40;;;;;;;2.53;0.70;;;13.20;99.90;;;;;;4974652;28;20203;-84
2023/01/03 11:59:32;;;;;;;0.82;0.65;;;13.10;99.90;;;;;;4972425;28;20195;-82
2023/01/03 12:02:35;;;;;;;1.38;0.75;;;13.10;99.90;;;;;;4972476;28;20230;-82
2023/01/03 12:05:38;;;;;;;2.38;0.90;;;13.10;99.90;;;;;;4969209;28;20190;-77
2023/01/03 12:08:41;;;;;;;1.38;0.65;;;13.20;99.90;;;;;;4975581;28;20203;-82
2023/01/03 12:11:39;;;;;;;1.00;0.50;;;13.40;99.90;;;;;;4981289;28;20262;-85
2023/01/03 12:14:28;;;;;;;2.22;1.42;;;13.60;99.90;;;;;;4973926;28;20214;-85
2023/01/03 12:17:24;;;;;;;2.38;1.00;;;14.00;99.90;;;;;;4979524;28;20186;-82
2023/01/03 12:19:56;;;;;;;4.90;1.00;;;14.30;99.90;;;;;;4886190;28;20211;-79
2023/01/03 12:22:27;;;;;;;2.25;0.93;;;14.60;99.90;;;;;;4969307;28;20461;-80
2023/01/03 12:25:04;;;;;;;2.42;1.20;;;14.90;99.90;;;;;;4983190;28;20175;-73
2023/01/03 12:27:36;;;;;;;2.25;0.88;;;15.10;99.90;;;;;;4963933;28;20196;-74
2023/01/03 12:30:24;;;;;;;1.75;0.98;;;15.20;99.90;;;;;;4987734;28;20193;-74
2023/01/03 12:32:55;;;;;;;1.75;0.90;;;15.30;99.90;;;;;;4971253;28;20179;-74
2023/01/03 12:35:31;;;;;;;2.28;0.70;;;15.40;99.90;;;;;;4965567;28;20214;-74
2023/01/03 12:37:58;;;;;;;2.42;1.20;;;15.50;99.90;;;;;;4977765;28;20183;-80
2023/01/03 12:40:44;;;;;;;1.30;1.08;;;15.50;99.90;;;;;;4976175;28;20286;-79
2023/01/03 12:43:36;;;;;;;1.90;1.10;;;15.60;99.90;;;;;;4974482;28;20179;-85
2023/01/03 12:46:17;;;;;;;1.30;0.80;;;15.50;99.90;;;;;;4974303;28;20181;-80
2023/01/03 12:48:42;;;;;;;3.60;0.88;;;15.50;99.90;;;;;;4962921;28;20195;-85
2023/01/03 12:51:08;;;;;;;1.80;0.75;;;15.50;99.90;;;;;;4978548;28;20202;-82
2023/01/03 12:53:42;;;;;;;1.55;0.65;;;15.40;99.90;;;;;;4980719;28;20229;-81
2023/01/03 12:56:09;;;;;;;1.30;0.52;;;15.30;99.90;;;;;;4978257;28;20215;-83
2023/01/03 12:59:00;;;;;;;1.17;0.60;;;15.10;99.90;;;;;;4972575;28;20211;-83
2023/01/03 13:01:44;;;;;;;2.80;0.70;;;15.10;99.90;;;;;;4978408;28;20199;-79
2023/01/03 13:04:24;;;;;;;1.58;0.95;;;15.10;99.90;;;;;;4995800;28;20206;-81
2023/01/03 13:07:34;;;;;;;3.03;0.90;;;15.10;99.90;;;;;;4998032;28;20204;-74
2023/01/03 13:10:16;;;;;;;2.50;0.88;;;15.00;99.90;;;;;;4971851;28;20271;-72
2023/01/03 13:12:46;;;;;;;3.10;1.10;;;15.00;99.90;;;;;;4969892;28;20188;-71
2023/01/03 13:15:47;;;;;;;2.40;1.20;;;15.00;99.90;;;;;;4972753;28;20183;-72
2023/01/03 13:18:22;;;;;;;2.25;0.90;;;15.00;99.90;;;;;;4966431;28;20278;-71
2023/01/03 13:20:54;;;;;;;1.25;0.80;;;15.10;99.90;;;;;;4974787;28;20195;-73
2023/01/03 13:23:29;;;;;;;2.50;1.13;;;15.10;99.90;;;;;;4973984;28;20210;-72
2023/01/03 13:26:06;;;;;;;2.92;1.00;;;15.20;99.90;;;;;;4989391;28;20277;-72
2023/01/03 13:28:32;;;;;;;1.75;0.70;;;15.10;99.90;;;;;;4986662;28;20175;-72
2023/01/03 13:31:15;;;;;;;2.00;0.60;;;15.20;99.90;;;;;;4969624;28;20179;-72
2023/01/03 13:33:47;;;;;;;1.10;0.70;;;15.20;99.90;;;;;;4973552;28;20203;-76
2023/01/03 13:36:14;;;;;;;1.77;0.70;;;15.20;99.90;;;;;;4979905;28;20390;-77
2023/01/03 13:38:43;;;;;;;2.42;0.75;;;15.10;99.90;;;;;;4977147;28;20218;-76
2023/01/03 13:41:30;;;;;;;1.65;0.70;;;15.00;99.90;;;;;;4969625;28;20203;-75
2023/01/03 13:44:07;;;;;;;2.50;0.80;;;14.80;99.90;;;;;;4967454;28;20183;-78
2023/01/03 13:46:33;;;;;;;2.20;0.80;;;14.70;99.90;;;;;;4973737;28;20203;-77
2023/01/03 13:49:15;;;;;;;2.97;0.60;;;14.60;99.90;;;;;;4966370;28;20183;-75
2023/01/03 13:51:51;;;;;;;0.77;0.60;;;14.40;99.90;;;;;;4977994;28;20194;-74
2023/01/03 13:54:17;;;;;;;1.08;0.50;;;14.30;99.90;;;;;;4963947;28;20313;-77
2023/01/03 13:56:45;;;;;;;1.52;0.75;;;14.20;99.90;;;;;;4966207;28;20227;-73
2023/01/03 13:59:13;;;;;;;2.53;0.80;;;14.10;99.90;;;;;;4962127;28;20210;-72
2023/01/03 14:05:42;;;;;;;2.97;0.80;;;13.90;99.90;;;;;;4913420;29;20186;-72
2023/01/03 14:09:06;;;;;;;1.52;0.60;;;13.90;99.90;;;;;;4954251;28;20171;-72
2023/01/03 14:22:51;;;;;;;4.13;0.85;;;13.70;99.90;;;;;;4991325;28;20285;-77
2023/01/03 14:29:29;;;;;;;1.48;0.50;;;13.90;99.90;;;;;;4915618;29;20209;-82
2023/01/03 14:45:56;;;;;;;1.60;0.52;;;13.80;99.90;;;;;;4887180;29;20196;-75
2023/01/03 14:48:23;;;;;;;1.20;0.68;;;13.70;99.90;;;;;;4945766;28;20187;-73
2023/01/03 14:50:59;;;;;;;2.15;0.60;;;13.60;99.90;;;;;;4971845;28;20246;-73
2023/01/03 14:53:26;;;;;;;2.83;0.70;;;13.60;99.90;;;;;;4973462;28;20186;-72
2023/01/03 14:55:56;;;;;;;2.40;0.60;;;13.60;99.90;;;;;;4975324;28;20183;-72
2023/01/03 14:58:46;;;;;;;3.45;0.60;;;13.50;99.90;;;;;;4976012;28;20203;-73
2023/01/03 15:01:25;;;;;;;1.42;0.60;;;13.50;99.90;;;;;;4980078;28;20204;-74
2023/01/03 15:04:34;;;;;;;2.08;0.60;;;13.40;99.90;;;;;;4971130;28;20210;-74
2023/01/03 15:14:51;;;;;;;2.80;0.73;;;13.20;99.90;;;;;;4913587;29;20264;-78
2023/01/03 15:24:40;;;;;;;1.77;0.65;;;12.80;99.90;;;;;;4897850;29;20294;-75
2023/01/03 15:27:39;;;;;;;0.95;0.60;;;12.70;99.90;;;;;;4899427;29;20258;-76